Главная страница
METAR-TAF:

METAR-TAF

Аэропорты :

Fort Resolution, Северо-Западные Территории, Канада

широта: 61-11N, долгота: 113-41W, высота над уровнем моря: 164 м

Текущие метеонаблюдения

Эта сводка был подготовлена 5 часа и 16 минут назад, в 22:00 UTC
Ветер 2 Узел переменных направлений
Температура 17°C
Влажность 63%
Давление 1005 hPa
Видимость: 8.0 км
Рассеянная облачность на высоте 22000 фута
дым

METAR: CYFR 172200Z VRB02KT 5SM FU BKN220 17/10 A2967 RMK CI7 /0/ LAST STFD OBS/NEXT201400Z SLP055 DENSITY ALT 1300FT

Время: 21:16 (03:16 UTC)


TAF: отсутствует

Метеонаблюдения и прогнозы для более 4000 аэропортов (сводки METAR и TAF).

Имеющиеся станции представлены на карте желтыми и красными точками.

Чтобы увидеть название станции, наведите на нее мышь.

Затем щелкните, чтобы увидеть метеонаблюдения и метеопрогнозы.

Управление картой: чтобы увеличить масштаб, щелкните зеленые кнопки с черным крестиком; чтобы уменьшить масштаб, щелкните зеленую кнопку с тире; для просмотра соседних карт щелкайте зеленые стрелки.


METAR-TAF: